sensor_id;sensor_type;location;lat;lon;timestamp;P1;durP1;ratioP1;P2;durP2;ratioP2
49722;SDS011;43484;43.608;1.458;2023-02-15T08:11:31;12.88;;;5.72;;
49722;SDS011;43484;43.608;1.458;2023-02-15T08:14:01;13.60;;;5.80;;
49722;SDS011;43484;43.608;1.458;2023-02-15T08:19:22;11.27;;;5.47;;
49722;SDS011;43484;43.608;1.458;2023-02-15T08:21:57;13.68;;;5.20;;
49722;SDS011;43484;43.608;1.458;2023-02-15T08:24:26;15.23;;;6.15;;
49722;SDS011;43484;43.608;1.458;2023-02-15T08:26:55;10.57;;;5.53;;
49722;SDS011;43484;43.608;1.458;2023-02-15T08:29:23;16.92;;;6.40;;
49722;SDS011;43484;43.608;1.458;2023-02-15T08:31:59;16.35;;;6.20;;
49722;SDS011;43484;43.608;1.458;2023-02-15T08:34:29;8.65;;;5.95;;
49722;SDS011;43484;43.608;1.458;2023-02-15T08:36:57;13.35;;;5.68;;
49722;SDS011;43484;43.608;1.458;2023-02-15T08:39:24;19.92;;;6.25;;
49722;SDS011;43484;43.608;1.458;2023-02-15T08:41:51;12.82;;;5.57;;
49722;SDS011;43484;43.608;1.458;2023-02-15T08:44:18;12.02;;;5.18;;
49722;SDS011;43484;43.608;1.458;2023-02-15T08:46:46;16.58;;;5.90;;
49722;SDS011;43484;43.608;1.458;2023-02-15T08:49:20;16.73;;;6.15;;
49722;SDS011;43484;43.608;1.458;2023-02-15T08:51:48;16.98;;;5.78;;
49722;SDS011;43484;43.608;1.458;2023-02-15T08:54:16;14.45;;;5.15;;
49722;SDS011;43484;43.608;1.458;2023-02-15T08:56:45;13.73;;;5.03;;
49722;SDS011;43484;43.608;1.458;2023-02-15T08:59:18;19.02;;;5.88;;
49722;SDS011;43484;43.608;1.458;2023-02-15T09:01:47;12.60;;;5.20;;
49722;SDS011;43484;43.608;1.458;2023-02-15T09:04:15;8.45;;;4.60;;
49722;SDS011;43484;43.608;1.458;2023-02-15T09:06:44;16.88;;;5.57;;
49722;SDS011;43484;43.608;1.458;2023-02-15T09:09:14;13.73;;;5.70;;
49722;SDS011;43484;43.608;1.458;2023-02-15T09:11:42;11.40;;;4.88;;
49722;SDS011;43484;43.608;1.458;2023-02-15T09:14:11;17.42;;;5.63;;
49722;SDS011;43484;43.608;1.458;2023-02-15T09:16:43;10.27;;;4.68;;
49722;SDS011;43484;43.608;1.458;2023-02-15T09:19:12;11.25;;;4.75;;
49722;SDS011;43484;43.608;1.458;2023-02-15T09:21:39;12.45;;;4.68;;
49722;SDS011;43484;43.608;1.458;2023-02-15T09:24:08;13.88;;;4.55;;
49722;SDS011;43484;43.608;1.458;2023-02-15T09:26:36;23.00;;;5.30;;
49722;SDS011;43484;43.608;1.458;2023-02-15T09:29:06;13.32;;;4.72;;
49722;SDS011;43484;43.608;1.458;2023-02-15T09:31:36;9.23;;;5.25;;
49722;SDS011;43484;43.608;1.458;2023-02-15T09:34:04;16.52;;;4.68;;
49722;SDS011;43484;43.608;1.458;2023-02-15T09:36:32;11.57;;;4.82;;
49722;SDS011;43484;43.608;1.458;2023-02-15T09:39:15;11.15;;;4.05;;
49722;SDS011;43484;43.608;1.458;2023-02-15T09:41:54;7.10;;;4.22;;
49722;SDS011;43484;43.608;1.458;2023-02-15T09:53:34;16.50;;;4.65;;
49722;SDS011;43484;43.608;1.458;2023-02-15T09:56:15;10.45;;;5.35;;
49722;SDS011;43484;43.608;1.458;2023-02-15T10:07:42;16.13;;;4.25;;
49722;SDS011;43484;43.608;1.458;2023-02-15T10:10:41;11.75;;;4.28;;
49722;SDS011;43484;43.608;1.458;2023-02-15T10:19:12;13.85;;;5.55;;
49722;SDS011;43484;43.608;1.458;2023-02-15T10:21:47;10.35;;;5.32;;
49722;SDS011;43484;43.608;1.458;2023-02-15T10:32:27;8.82;;;4.03;;
49722;SDS011;43484;43.608;1.458;2023-02-15T10:35:07;9.38;;;3.78;;
49722;SDS011;43484;43.608;1.458;2023-02-15T10:37:47;7.93;;;3.72;;
49722;SDS011;43484;43.608;1.458;2023-02-15T10:43:48;12.43;;;4.72;;
49722;SDS011;43484;43.608;1.458;2023-02-15T11:05:52;7.18;;;3.20;;
49722;SDS011;43484;43.608;1.458;2023-02-15T11:08:24;10.93;;;3.53;;
49722;SDS011;43484;43.608;1.458;2023-02-15T11:10:55;16.55;;;3.55;;
49722;SDS011;43484;43.608;1.458;2023-02-15T11:13:29;10.38;;;2.72;;
49722;SDS011;43484;43.608;1.458;2023-02-15T11:16:08;10.40;;;3.40;;
49722;SDS011;43484;43.608;1.458;2023-02-15T11:18:48;7.78;;;2.70;;
49722;SDS011;43484;43.608;1.458;2023-02-15T11:21:27;6.45;;;3.13;;
49722;SDS011;43484;43.608;1.458;2023-02-15T11:24:08;10.40;;;5.18;;
49722;SDS011;43484;43.608;1.458;2023-02-15T11:26:43;12.07;;;4.13;;
49722;SDS011;43484;43.608;1.458;2023-02-15T11:29:29;7.30;;;3.08;;
49722;SDS011;43484;43.608;1.458;2023-02-15T11:32:24;7.00;;;2.83;;
49722;SDS011;43484;43.608;1.458;2023-02-15T11:42:45;12.98;;;3.75;;
49722;SDS011;43484;43.608;1.458;2023-02-15T11:45:28;10.68;;;2.90;;
49722;SDS011;43484;43.608;1.458;2023-02-15T11:47:57;10.20;;;3.15;;
49722;SDS011;43484;43.608;1.458;2023-02-15T11:50:26;6.95;;;2.83;;
49722;SDS011;43484;43.608;1.458;2023-02-15T11:53:02;7.43;;;3.22;;
49722;SDS011;43484;43.608;1.458;2023-02-15T11:55:54;8.48;;;2.50;;
49722;SDS011;43484;43.608;1.458;2023-02-15T12:09:52;7.00;;;2.80;;
49722;SDS011;43484;43.608;1.458;2023-02-15T12:12:40;14.15;;;3.08;;
49722;SDS011;43484;43.608;1.458;2023-02-15T12:15:07;11.60;;;3.13;;
49722;SDS011;43484;43.608;1.458;2023-02-15T12:17:39;5.20;;;2.45;;
49722;SDS011;43484;43.608;1.458;2023-02-15T12:23:14;9.57;;;3.13;;
49722;SDS011;43484;43.608;1.458;2023-02-15T12:25:42;6.15;;;3.13;;
49722;SDS011;43484;43.608;1.458;2023-02-15T12:31:23;7.63;;;3.17;;
49722;SDS011;43484;43.608;1.458;2023-02-15T12:33:53;13.05;;;3.25;;
49722;SDS011;43484;43.608;1.458;2023-02-15T12:36:29;7.03;;;2.25;;
49722;SDS011;43484;43.608;1.458;2023-02-15T12:44:32;6.82;;;2.97;;
49722;SDS011;43484;43.608;1.458;2023-02-15T12:49:42;14.02;;;2.75;;
49722;SDS011;43484;43.608;1.458;2023-02-15T12:54:46;11.32;;;2.22;;
49722;SDS011;43484;43.608;1.458;2023-02-15T12:57:15;7.60;;;3.03;;
49722;SDS011;43484;43.608;1.458;2023-02-15T12:59:54;12.73;;;2.75;;
49722;SDS011;43484;43.608;1.458;2023-02-15T13:05:13;7.25;;;2.50;;
49722;SDS011;43484;43.608;1.458;2023-02-15T13:07:46;10.68;;;2.63;;
49722;SDS011;43484;43.608;1.458;2023-02-15T13:10:24;13.25;;;3.40;;
49722;SDS011;43484;43.608;1.458;2023-02-15T13:12:54;27.50;;;3.63;;
49722;SDS011;43484;43.608;1.458;2023-02-15T13:15:28;41.55;;;6.10;;
49722;SDS011;43484;43.608;1.458;2023-02-15T13:17:57;20.98;;;3.08;;
49722;SDS011;43484;43.608;1.458;2023-02-15T13:20:24;15.18;;;2.72;;
49722;SDS011;43484;43.608;1.458;2023-02-15T13:22:56;6.80;;;2.38;;
49722;SDS011;43484;43.608;1.458;2023-02-15T13:25:26;9.48;;;2.03;;
49722;SDS011;43484;43.608;1.458;2023-02-15T13:28:02;10.75;;;2.25;;
49722;SDS011;43484;43.608;1.458;2023-02-15T13:33:00;7.13;;;2.50;;
49722;SDS011;43484;43.608;1.458;2023-02-15T13:35:33;8.02;;;2.35;;
49722;SDS011;43484;43.608;1.458;2023-02-15T13:38:11;5.95;;;2.28;;
49722;SDS011;43484;43.608;1.458;2023-02-15T13:41:02;7.20;;;2.30;;
49722;SDS011;43484;43.608;1.458;2023-02-15T13:43:35;6.78;;;3.00;;
49722;SDS011;43484;43.608;1.458;2023-02-15T13:52:30;10.82;;;2.72;;
49722;SDS011;43484;43.608;1.458;2023-02-15T13:55:27;8.98;;;2.25;;
49722;SDS011;43484;43.608;1.458;2023-02-15T14:08:44;13.23;;;2.38;;
49722;SDS011;43484;43.608;1.458;2023-02-15T14:11:22;6.10;;;2.55;;
49722;SDS011;43484;43.608;1.458;2023-02-15T14:22:10;9.18;;;2.10;;
49722;SDS011;43484;43.608;1.458;2023-02-15T14:30:13;3.88;;;1.73;;
49722;SDS011;43484;43.608;1.458;2023-02-15T14:33:01;6.13;;;2.10;;
49722;SDS011;43484;43.608;1.458;2023-02-15T14:35:33;7.07;;;2.35;;
49722;SDS011;43484;43.608;1.458;2023-02-15T14:49:25;3.15;;;1.50;;
49722;SDS011;43484;43.608;1.458;2023-02-15T14:51:54;8.10;;;1.75;;
49722;SDS011;43484;43.608;1.458;2023-02-15T15:02:45;10.18;;;2.60;;
49722;SDS011;43484;43.608;1.458;2023-02-15T15:05:19;3.88;;;1.90;;
49722;SDS011;43484;43.608;1.458;2023-02-15T15:07:54;7.82;;;2.13;;
49722;SDS011;43484;43.608;1.458;2023-02-15T15:12:53;8.27;;;1.80;;
49722;SDS011;43484;43.608;1.458;2023-02-15T15:18:05;11.48;;;2.85;;
49722;SDS011;43484;43.608;1.458;2023-02-15T15:20:40;14.55;;;3.55;;
49722;SDS011;43484;43.608;1.458;2023-02-15T15:25:42;17.35;;;2.83;;
49722;SDS011;43484;43.608;1.458;2023-02-15T15:31:04;5.13;;;1.60;;
49722;SDS011;43484;43.608;1.458;2023-02-15T15:49:43;9.70;;;2.40;;
49722;SDS011;43484;43.608;1.458;2023-02-15T15:52:17;9.48;;;2.25;;
49722;SDS011;43484;43.608;1.458;2023-02-15T15:54:46;4.38;;;1.90;;
49722;SDS011;43484;43.608;1.458;2023-02-15T15:57:32;7.57;;;2.30;;
49722;SDS011;43484;43.608;1.458;2023-02-15T16:00:04;5.90;;;2.00;;
49722;SDS011;43484;43.608;1.458;2023-02-15T16:02:50;5.00;;;2.20;;
49722;SDS011;43484;43.608;1.458;2023-02-15T16:05:18;7.25;;;2.25;;
49722;SDS011;43484;43.608;1.458;2023-02-15T16:07:46;8.77;;;2.35;;
49722;SDS011;43484;43.608;1.458;2023-02-15T16:10:20;4.88;;;2.35;;
49722;SDS011;43484;43.608;1.458;2023-02-15T16:12:51;7.45;;;2.03;;
49722;SDS011;43484;43.608;1.458;2023-02-15T16:15:23;4.43;;;2.72;;
49722;SDS011;43484;43.608;1.458;2023-02-15T16:17:57;4.80;;;2.50;;
49722;SDS011;43484;43.608;1.458;2023-02-15T16:28:27;4.70;;;2.15;;
49722;SDS011;43484;43.608;1.458;2023-02-15T16:31:07;6.75;;;3.13;;
49722;SDS011;43484;43.608;1.458;2023-02-15T16:33:40;6.68;;;3.25;;
49722;SDS011;43484;43.608;1.458;2023-02-15T16:36:12;5.20;;;2.97;;
49722;SDS011;43484;43.608;1.458;2023-02-15T16:41:13;7.68;;;2.78;;
49722;SDS011;43484;43.608;1.458;2023-02-15T16:43:52;6.57;;;2.83;;
49722;SDS011;43484;43.608;1.458;2023-02-15T16:46:22;3.75;;;2.60;;
49722;SDS011;43484;43.608;1.458;2023-02-15T16:48:53;10.50;;;3.15;;
49722;SDS011;43484;43.608;1.458;2023-02-15T16:51:24;10.65;;;3.05;;
49722;SDS011;43484;43.608;1.458;2023-02-15T16:53:54;7.90;;;3.28;;
49722;SDS011;43484;43.608;1.458;2023-02-15T16:56:23;6.28;;;3.17;;
49722;SDS011;43484;43.608;1.458;2023-02-15T16:58:52;9.90;;;2.80;;
49722;SDS011;43484;43.608;1.458;2023-02-15T17:01:22;13.15;;;2.92;;
49722;SDS011;43484;43.608;1.458;2023-02-15T17:03:52;7.72;;;3.38;;
49722;SDS011;43484;43.608;1.458;2023-02-15T17:07:01;9.90;;;3.20;;
49722;SDS011;43484;43.608;1.458;2023-02-15T17:09:31;8.45;;;4.22;;
49722;SDS011;43484;43.608;1.458;2023-02-15T17:11:58;6.15;;;3.05;;
49722;SDS011;43484;43.608;1.458;2023-02-15T17:14:29;7.90;;;3.60;;
49722;SDS011;43484;43.608;1.458;2023-02-15T17:19:47;9.27;;;3.58;;
49722;SDS011;43484;43.608;1.458;2023-02-15T17:22:22;7.15;;;3.90;;
49722;SDS011;43484;43.608;1.458;2023-02-15T17:24:57;6.93;;;3.30;;
49722;SDS011;43484;43.608;1.458;2023-02-15T17:29:55;9.77;;;4.80;;
49722;SDS011;43484;43.608;1.458;2023-02-15T17:32:25;13.60;;;5.55;;
49722;SDS011;43484;43.608;1.458;2023-02-15T17:40:09;6.50;;;3.53;;
49722;SDS011;43484;43.608;1.458;2023-02-15T17:42:44;10.85;;;5.00;;
49722;SDS011;43484;43.608;1.458;2023-02-15T17:45:11;7.93;;;4.60;;
49722;SDS011;43484;43.608;1.458;2023-02-15T17:47:41;8.85;;;4.55;;
49722;SDS011;43484;43.608;1.458;2023-02-15T17:50:11;9.32;;;5.07;;
49722;SDS011;43484;43.608;1.458;2023-02-15T17:52:44;15.68;;;4.93;;
49722;SDS011;43484;43.608;1.458;2023-02-15T17:55:12;22.98;;;8.43;;
49722;SDS011;43484;43.608;1.458;2023-02-15T17:58:00;11.73;;;5.60;;
49722;SDS011;43484;43.608;1.458;2023-02-15T18:00:30;9.30;;;4.82;;
49722;SDS011;43484;43.608;1.458;2023-02-15T18:03:16;9.98;;;4.90;;
49722;SDS011;43484;43.608;1.458;2023-02-15T18:06:02;11.50;;;5.63;;
49722;SDS011;43484;43.608;1.458;2023-02-15T18:08:47;15.32;;;5.65;;
49722;SDS011;43484;43.608;1.458;2023-02-15T18:11:33;8.45;;;4.63;;
49722;SDS011;43484;43.608;1.458;2023-02-15T18:14:06;10.43;;;4.72;;
49722;SDS011;43484;43.608;1.458;2023-02-15T18:16:35;8.60;;;4.88;;
49722;SDS011;43484;43.608;1.458;2023-02-15T18:19:06;14.65;;;5.13;;
49722;SDS011;43484;43.608;1.458;2023-02-15T18:21:39;8.73;;;4.40;;
49722;SDS011;43484;43.608;1.458;2023-02-15T18:24:08;7.82;;;5.25;;
49722;SDS011;43484;43.608;1.458;2023-02-15T18:26:40;10.88;;;5.28;;
49722;SDS011;43484;43.608;1.458;2023-02-15T18:29:06;12.38;;;5.85;;
49722;SDS011;43484;43.608;1.458;2023-02-15T18:31:33;11.52;;;6.68;;
49722;SDS011;43484;43.608;1.458;2023-02-15T18:34:00;11.18;;;5.30;;
49722;SDS011;43484;43.608;1.458;2023-02-15T18:36:33;10.57;;;6.32;;
49722;SDS011;43484;43.608;1.458;2023-02-15T18:42:18;12.52;;;6.07;;
49722;SDS011;43484;43.608;1.458;2023-02-15T18:44:47;13.73;;;6.85;;
49722;SDS011;43484;43.608;1.458;2023-02-15T18:47:19;14.57;;;7.28;;
49722;SDS011;43484;43.608;1.458;2023-02-15T18:49:46;11.80;;;7.13;;
49722;SDS011;43484;43.608;1.458;2023-02-15T18:52:16;13.02;;;7.28;;
49722;SDS011;43484;43.608;1.458;2023-02-15T18:54:45;15.18;;;8.52;;
49722;SDS011;43484;43.608;1.458;2023-02-15T18:57:13;16.02;;;7.85;;
49722;SDS011;43484;43.608;1.458;2023-02-15T18:59:41;11.55;;;7.15;;
49722;SDS011;43484;43.608;1.458;2023-02-15T19:02:12;11.05;;;7.13;;
49722;SDS011;43484;43.608;1.458;2023-02-15T19:04:43;11.05;;;6.95;;
49722;SDS011;43484;43.608;1.458;2023-02-15T19:09:41;13.73;;;7.28;;
49722;SDS011;43484;43.608;1.458;2023-02-15T19:12:10;15.82;;;6.78;;
49722;SDS011;43484;43.608;1.458;2023-02-15T19:14:38;13.13;;;6.97;;
49722;SDS011;43484;43.608;1.458;2023-02-15T19:17:08;15.80;;;6.88;;
49722;SDS011;43484;43.608;1.458;2023-02-15T19:19:40;12.38;;;6.43;;
49722;SDS011;43484;43.608;1.458;2023-02-15T19:22:12;13.85;;;7.10;;
49722;SDS011;43484;43.608;1.458;2023-02-15T19:24:44;20.75;;;7.90;;
49722;SDS011;43484;43.608;1.458;2023-02-15T19:29:50;16.63;;;7.90;;
49722;SDS011;43484;43.608;1.458;2023-02-15T19:32:19;11.55;;;6.60;;
49722;SDS011;43484;43.608;1.458;2023-02-15T19:34:46;13.48;;;7.60;;
49722;SDS011;43484;43.608;1.458;2023-02-15T19:37:56;12.30;;;7.93;;
49722;SDS011;43484;43.608;1.458;2023-02-15T19:40:14;12.10;;;6.60;;
49722;SDS011;43484;43.608;1.458;2023-02-15T19:42:46;13.32;;;6.68;;
49722;SDS011;43484;43.608;1.458;2023-02-15T19:45:15;17.38;;;7.50;;
49722;SDS011;43484;43.608;1.458;2023-02-15T19:47:44;14.52;;;7.38;;
49722;SDS011;43484;43.608;1.458;2023-02-15T19:50:20;11.80;;;6.70;;
49722;SDS011;43484;43.608;1.458;2023-02-15T19:52:49;12.35;;;7.35;;
49722;SDS011;43484;43.608;1.458;2023-02-15T19:55:17;12.05;;;7.40;;
49722;SDS011;43484;43.608;1.458;2023-02-15T19:57:49;12.60;;;7.35;;
49722;SDS011;43484;43.608;1.458;2023-02-15T20:00:18;16.30;;;7.47;;
49722;SDS011;43484;43.608;1.458;2023-02-15T20:02:48;15.35;;;7.70;;
49722;SDS011;43484;43.608;1.458;2023-02-15T20:05:14;13.43;;;8.40;;
49722;SDS011;43484;43.608;1.458;2023-02-15T20:07:45;17.30;;;8.43;;
49722;SDS011;43484;43.608;1.458;2023-02-15T20:10:14;14.50;;;8.00;;
49722;SDS011;43484;43.608;1.458;2023-02-15T20:12:52;18.80;;;8.27;;
49722;SDS011;43484;43.608;1.458;2023-02-15T20:15:24;14.65;;;7.57;;
49722;SDS011;43484;43.608;1.458;2023-02-15T20:17:58;8.23;;;7.20;;
49722;SDS011;43484;43.608;1.458;2023-02-15T20:20:37;11.82;;;7.45;;
49722;SDS011;43484;43.608;1.458;2023-02-15T20:23:15;17.80;;;7.32;;
49722;SDS011;43484;43.608;1.458;2023-02-15T20:25:47;14.43;;;6.55;;
49722;SDS011;43484;43.608;1.458;2023-02-15T20:28:20;14.80;;;7.90;;
49722;SDS011;43484;43.608;1.458;2023-02-15T20:30:55;10.40;;;7.57;;
49722;SDS011;43484;43.608;1.458;2023-02-15T20:33:22;18.45;;;7.93;;
49722;SDS011;43484;43.608;1.458;2023-02-15T20:35:49;13.00;;;7.75;;
49722;SDS011;43484;43.608;1.458;2023-02-15T20:40:57;12.85;;;6.80;;
49722;SDS011;43484;43.608;1.458;2023-02-15T20:43:45;13.77;;;7.10;;
49722;SDS011;43484;43.608;1.458;2023-02-15T20:46:11;15.40;;;7.22;;
49722;SDS011;43484;43.608;1.458;2023-02-15T20:48:38;14.45;;;6.47;;
49722;SDS011;43484;43.608;1.458;2023-02-15T20:51:05;10.85;;;6.75;;
49722;SDS011;43484;43.608;1.458;2023-02-15T20:53:31;14.55;;;6.65;;
49722;SDS011;43484;43.608;1.458;2023-02-15T20:55:58;12.15;;;6.90;;
49722;SDS011;43484;43.608;1.458;2023-02-15T20:58:26;11.98;;;6.90;;
49722;SDS011;43484;43.608;1.458;2023-02-15T21:00:55;14.65;;;7.72;;
49722;SDS011;43484;43.608;1.458;2023-02-15T21:03:24;12.73;;;7.10;;
49722;SDS011;43484;43.608;1.458;2023-02-15T21:05:56;12.95;;;6.53;;
49722;SDS011;43484;43.608;1.458;2023-02-15T21:08:24;11.73;;;6.93;;
49722;SDS011;43484;43.608;1.458;2023-02-15T21:10:51;11.30;;;7.40;;
49722;SDS011;43484;43.608;1.458;2023-02-15T21:13:19;10.50;;;7.53;;
49722;SDS011;43484;43.608;1.458;2023-02-15T21:15:49;17.13;;;8.00;;
49722;SDS011;43484;43.608;1.458;2023-02-15T21:18:21;14.45;;;7.95;;
49722;SDS011;43484;43.608;1.458;2023-02-15T21:20:49;15.77;;;8.18;;
49722;SDS011;43484;43.608;1.458;2023-02-15T21:23:22;14.38;;;7.97;;
49722;SDS011;43484;43.608;1.458;2023-02-15T21:25:53;14.05;;;8.38;;
49722;SDS011;43484;43.608;1.458;2023-02-15T21:28:22;14.38;;;7.60;;
49722;SDS011;43484;43.608;1.458;2023-02-15T21:30:54;14.32;;;8.05;;
49722;SDS011;43484;43.608;1.458;2023-02-15T21:33:25;18.52;;;8.30;;
49722;SDS011;43484;43.608;1.458;2023-02-15T21:35:53;13.60;;;8.32;;
49722;SDS011;43484;43.608;1.458;2023-02-15T21:38:23;20.00;;;8.75;;
49722;SDS011;43484;43.608;1.458;2023-02-15T21:40:53;12.98;;;8.70;;
49722;SDS011;43484;43.608;1.458;2023-02-15T21:43:21;14.48;;;8.25;;
49722;SDS011;43484;43.608;1.458;2023-02-15T21:46:14;11.02;;;7.97;;
49722;SDS011;43484;43.608;1.458;2023-02-15T21:49:01;11.52;;;7.45;;
49722;SDS011;43484;43.608;1.458;2023-02-15T21:51:29;14.40;;;7.72;;
49722;SDS011;43484;43.608;1.458;2023-02-15T21:54:18;13.50;;;8.07;;
49722;SDS011;43484;43.608;1.458;2023-02-15T21:56:46;16.55;;;8.82;;
49722;SDS011;43484;43.608;1.458;2023-02-15T21:59:14;14.45;;;7.70;;
49722;SDS011;43484;43.608;1.458;2023-02-15T22:01:48;20.40;;;9.48;;
49722;SDS011;43484;43.608;1.458;2023-02-15T22:04:21;16.95;;;8.52;;
49722;SDS011;43484;43.608;1.458;2023-02-15T22:06:50;16.07;;;8.70;;
49722;SDS011;43484;43.608;1.458;2023-02-15T22:09:18;14.98;;;9.82;;
49722;SDS011;43484;43.608;1.458;2023-02-15T22:11:46;13.57;;;8.90;;
49722;SDS011;43484;43.608;1.458;2023-02-15T22:16:58;15.43;;;9.48;;
49722;SDS011;43484;43.608;1.458;2023-02-15T22:19:25;12.93;;;8.68;;
49722;SDS011;43484;43.608;1.458;2023-02-15T22:21:53;14.18;;;9.40;;
49722;SDS011;43484;43.608;1.458;2023-02-15T22:24:20;17.10;;;9.50;;
49722;SDS011;43484;43.608;1.458;2023-02-15T22:26:47;13.52;;;8.75;;
49722;SDS011;43484;43.608;1.458;2023-02-15T22:29:14;13.80;;;9.90;;
49722;SDS011;43484;43.608;1.458;2023-02-15T22:31:42;19.90;;;10.13;;
49722;SDS011;43484;43.608;1.458;2023-02-15T22:34:31;16.48;;;9.32;;
49722;SDS011;43484;43.608;1.458;2023-02-15T22:36:57;18.35;;;9.60;;
49722;SDS011;43484;43.608;1.458;2023-02-15T22:39:24;12.88;;;9.40;;
49722;SDS011;43484;43.608;1.458;2023-02-15T22:41:52;16.52;;;9.75;;
49722;SDS011;43484;43.608;1.458;2023-02-15T22:44:23;15.55;;;9.57;;
49722;SDS011;43484;43.608;1.458;2023-02-15T22:49:21;12.75;;;8.50;;
49722;SDS011;43484;43.608;1.458;2023-02-15T22:51:47;14.57;;;9.40;;
49722;SDS011;43484;43.608;1.458;2023-02-15T22:54:15;13.77;;;8.90;;
49722;SDS011;43484;43.608;1.458;2023-02-15T22:59:25;13.52;;;9.27;;
49722;SDS011;43484;43.608;1.458;2023-02-15T23:01:57;14.73;;;9.50;;
49722;SDS011;43484;43.608;1.458;2023-02-15T23:04:27;17.95;;;10.13;;
49722;SDS011;43484;43.608;1.458;2023-02-15T23:06:55;16.58;;;9.73;;
49722;SDS011;43484;43.608;1.458;2023-02-15T23:09:24;15.95;;;9.65;;
49722;SDS011;43484;43.608;1.458;2023-02-15T23:11:51;17.88;;;8.88;;
49722;SDS011;43484;43.608;1.458;2023-02-15T23:14:23;12.40;;;7.80;;
49722;SDS011;43484;43.608;1.458;2023-02-15T23:16:52;13.57;;;8.52;;
49722;SDS011;43484;43.608;1.458;2023-02-15T23:19:19;14.45;;;8.80;;
49722;SDS011;43484;43.608;1.458;2023-02-15T23:21:46;12.95;;;8.85;;
49722;SDS011;43484;43.608;1.458;2023-02-15T23:24:15;13.85;;;9.05;;
49722;SDS011;43484;43.608;1.458;2023-02-15T23:26:52;14.23;;;8.98;;
49722;SDS011;43484;43.608;1.458;2023-02-15T23:29:19;17.70;;;9.07;;
49722;SDS011;43484;43.608;1.458;2023-02-15T23:31:49;15.13;;;8.95;;
49722;SDS011;43484;43.608;1.458;2023-02-15T23:34:28;12.63;;;9.18;;
49722;SDS011;43484;43.608;1.458;2023-02-15T23:36:55;13.07;;;9.60;;
49722;SDS011;43484;43.608;1.458;2023-02-15T23:39:23;10.80;;;8.73;;
49722;SDS011;43484;43.608;1.458;2023-02-15T23:42:11;19.73;;;9.40;;
49722;SDS011;43484;43.608;1.458;2023-02-15T23:44:42;19.88;;;9.35;;
49722;SDS011;43484;43.608;1.458;2023-02-15T23:52:44;16.27;;;8.45;;
49722;SDS011;43484;43.608;1.458;2023-02-15T23:55:11;13.27;;;9.20;;
49722;SDS011;43484;43.608;1.458;2023-02-15T23:57:39;14.60;;;10.02;;
